Terminal Aerodrome Forecast
Issued by NWS

Home | Current Version | Previous Version | Text Only | Print | Product List | Glossary On
Versions: 1 2 3 4 5 6 7 8 9 10 11 12 13 14 15 16 17 18 19 20 21 22 23 24 25 26 27 28 29 30 31 32 33 34 35 36 37 38 39 40 41 42 43
513
FTUS43 KGRB 031259 AAA
TAFRHI
TAF AMD
KRHI 031259Z 0313/0412 01009G14KT 5SM -SN BR OVC009
      TEMPO 0313/0316 1 1/2SM -SN BR BKN005
     FM032000 30010G16KT P6SM -SN BKN015
     FM032300 30008KT P6SM SCT015 BKN030
     FM040400 28004KT P6SM SCT030 BKN100=

USA.gov is the U.S. government's official web portal to all federal, state and local government web resources and services.